SBSC

Santa Cruz Airport

Rio De Janeiro, Brazil
TAF SBSC 211430Z 2118/2206 05007KT 9999 SCT025 TX39/2118Z TN26/2206Z PROB40 TEMPO 2120/2124 16006KT VCSH SCT030 FEW040TCU RMK PEL
Issued Valid From Valid To
Jan-21 @ 14:30 UTC
(10 hours ago)
Jan-21 @ 18:00 UTC
(6 hours ago)
Jan-22 @ 06:00 UTC
(in 6 hours)
Jan-21 @ 18:00 to Jan-22 @ 06:00
TAF SBSC 211430Z 2118/2206 05007KT 9999 SCT025 TX39/2118Z TN26/2206Z
Wind Visibility Clouds
50° at 7 knots 10,000+ meters
  • Scattered at 2,500' AGL
Expired Click to View Jan-21 @ 20:00 to Jan-22 @ 00:00
PROB40 TEMPO 2120/2124 16006KT VCSH SCT030 FEW040TCU RMK PEL
Wind Clouds
160° at 6 knots
  • Scattered at 3,000' AGL
  • Few at 4,000' AGL
TAF SBSC 211430Z 2118/2206 05007KT 9999 SCT025 TX39/2118Z TN26/2206Z PROB40 TEMPO 2120/2124 16006KT VCSH SCT030 FEW040TCU RMK PEL
Issued Jan-21 @ 14:30 UTC
(10 hours ago)
Valid From Jan-21 @ 18:00 UTC
(6 hours ago)
Valid To Jan-22 @ 06:00 UTC
(in 6 hours)
Jan-21 @ 18:00 - Jan-22 @ 06:00
Wind Visibility
50° at 7 knots 10,000+ meters
Clouds
  • Scattered at 2,500' AGL
Jan-21 @ 20:00 - Jan-22 @ 00:00
Wind
160° at 6 knots
Clouds
  • Scattered at 3,000' AGL
  • Few at 4,000' AGL